sensor_id;sensor_type;location;lat;lon;timestamp;P1;durP1;ratioP1;P2;durP2;ratioP2
20928;SDS011;21895;47.072;15.132;2023-10-13T00:00:26;6.07;;;1.33;;
20928;SDS011;21895;47.072;15.132;2023-10-13T00:03:03;2.57;;;1.50;;
20928;SDS011;21895;47.072;15.132;2023-10-13T00:05:32;3.33;;;1.90;;
20928;SDS011;21895;47.072;15.132;2023-10-13T00:07:59;2.37;;;1.37;;
20928;SDS011;21895;47.072;15.132;2023-10-13T00:10:28;2.77;;;1.33;;
20928;SDS011;21895;47.072;15.132;2023-10-13T00:12:57;3.60;;;1.87;;
20928;SDS011;21895;47.072;15.132;2023-10-13T00:15:41;2.63;;;1.40;;
20928;SDS011;21895;47.072;15.132;2023-10-13T00:18:31;8.27;;;1.70;;
20928;SDS011;21895;47.072;15.132;2023-10-13T00:21:07;2.50;;;1.30;;
20928;SDS011;21895;47.072;15.132;2023-10-13T00:23:39;2.27;;;1.27;;
20928;SDS011;21895;47.072;15.132;2023-10-13T00:26:24;4.23;;;1.73;;
20928;SDS011;21895;47.072;15.132;2023-10-13T00:28:54;5.33;;;1.97;;
20928;SDS011;21895;47.072;15.132;2023-10-13T00:31:36;3.20;;;1.80;;
20928;SDS011;21895;47.072;15.132;2023-10-13T00:34:06;8.33;;;1.90;;
20928;SDS011;21895;47.072;15.132;2023-10-13T00:36:50;2.53;;;1.37;;
20928;SDS011;21895;47.072;15.132;2023-10-13T00:39:35;3.63;;;1.63;;
20928;SDS011;21895;47.072;15.132;2023-10-13T00:42:03;5.03;;;1.33;;
20928;SDS011;21895;47.072;15.132;2023-10-13T00:44:33;3.70;;;1.60;;
20928;SDS011;21895;47.072;15.132;2023-10-13T00:47:10;8.90;;;1.67;;
20928;SDS011;21895;47.072;15.132;2023-10-13T00:49:48;5.57;;;1.83;;
20928;SDS011;21895;47.072;15.132;2023-10-13T00:52:15;7.73;;;1.70;;
20928;SDS011;21895;47.072;15.132;2023-10-13T00:54:46;8.03;;;2.10;;
20928;SDS011;21895;47.072;15.132;2023-10-13T00:57:13;5.40;;;1.70;;
20928;SDS011;21895;47.072;15.132;2023-10-13T00:59:54;5.07;;;1.57;;
20928;SDS011;21895;47.072;15.132;2023-10-13T01:02:26;7.00;;;2.00;;
20928;SDS011;21895;47.072;15.132;2023-10-13T01:05:02;3.57;;;1.53;;
20928;SDS011;21895;47.072;15.132;2023-10-13T01:07:30;1.43;;;1.27;;
20928;SDS011;21895;47.072;15.132;2023-10-13T01:09:57;2.00;;;1.30;;
20928;SDS011;21895;47.072;15.132;2023-10-13T01:12:23;6.37;;;1.20;;
20928;SDS011;21895;47.072;15.132;2023-10-13T01:14:50;1.77;;;1.30;;
20928;SDS011;21895;47.072;15.132;2023-10-13T01:17:17;3.30;;;1.27;;
20928;SDS011;21895;47.072;15.132;2023-10-13T01:19:44;3.07;;;1.17;;
20928;SDS011;21895;47.072;15.132;2023-10-13T01:22:14;2.67;;;1.20;;
20928;SDS011;21895;47.072;15.132;2023-10-13T01:24:41;3.57;;;1.47;;
20928;SDS011;21895;47.072;15.132;2023-10-13T01:27:07;6.77;;;1.50;;
20928;SDS011;21895;47.072;15.132;2023-10-13T01:29:43;5.13;;;1.60;;
20928;SDS011;21895;47.072;15.132;2023-10-13T01:32:14;7.50;;;1.20;;
20928;SDS011;21895;47.072;15.132;2023-10-13T01:34:43;2.27;;;1.20;;
20928;SDS011;21895;47.072;15.132;2023-10-13T01:37:12;16.40;;;2.07;;
20928;SDS011;21895;47.072;15.132;2023-10-13T01:39:41;2.87;;;1.30;;
20928;SDS011;21895;47.072;15.132;2023-10-13T01:42:12;6.50;;;1.67;;
20928;SDS011;21895;47.072;15.132;2023-10-13T01:44:46;2.80;;;1.37;;
20928;SDS011;21895;47.072;15.132;2023-10-13T01:47:13;3.83;;;1.40;;
20928;SDS011;21895;47.072;15.132;2023-10-13T01:49:42;6.73;;;1.70;;
20928;SDS011;21895;47.072;15.132;2023-10-13T01:52:12;5.67;;;1.53;;
20928;SDS011;21895;47.072;15.132;2023-10-13T01:54:43;5.93;;;1.20;;
20928;SDS011;21895;47.072;15.132;2023-10-13T01:57:14;4.13;;;1.67;;
20928;SDS011;21895;47.072;15.132;2023-10-13T01:59:43;6.90;;;1.80;;
20928;SDS011;21895;47.072;15.132;2023-10-13T02:02:11;6.50;;;1.47;;
20928;SDS011;21895;47.072;15.132;2023-10-13T02:04:45;7.47;;;1.97;;
20928;SDS011;21895;47.072;15.132;2023-10-13T02:07:15;5.97;;;1.87;;
20928;SDS011;21895;47.072;15.132;2023-10-13T02:09:42;2.27;;;1.40;;
20928;SDS011;21895;47.072;15.132;2023-10-13T02:12:09;3.83;;;1.57;;
20928;SDS011;21895;47.072;15.132;2023-10-13T02:14:36;3.93;;;1.50;;
20928;SDS011;21895;47.072;15.132;2023-10-13T02:17:03;4.67;;;1.67;;
20928;SDS011;21895;47.072;15.132;2023-10-13T02:19:40;5.80;;;2.03;;
20928;SDS011;21895;47.072;15.132;2023-10-13T02:22:10;1.47;;;1.03;;
20928;SDS011;21895;47.072;15.132;2023-10-13T02:24:49;3.00;;;1.60;;
20928;SDS011;21895;47.072;15.132;2023-10-13T02:27:18;8.20;;;1.43;;
20928;SDS011;21895;47.072;15.132;2023-10-13T02:29:51;6.27;;;2.00;;
20928;SDS011;21895;47.072;15.132;2023-10-13T02:32:24;3.90;;;1.63;;
20928;SDS011;21895;47.072;15.132;2023-10-13T02:34:52;5.37;;;2.23;;
20928;SDS011;21895;47.072;15.132;2023-10-13T02:37:23;3.80;;;1.60;;
20928;SDS011;21895;47.072;15.132;2023-10-13T02:39:50;3.73;;;1.63;;
20928;SDS011;21895;47.072;15.132;2023-10-13T02:42:16;2.57;;;1.00;;
20928;SDS011;21895;47.072;15.132;2023-10-13T02:44:49;7.30;;;1.53;;
20928;SDS011;21895;47.072;15.132;2023-10-13T02:47:16;8.33;;;1.73;;
20928;SDS011;21895;47.072;15.132;2023-10-13T02:49:45;1.97;;;1.10;;
20928;SDS011;21895;47.072;15.132;2023-10-13T02:52:13;6.60;;;1.77;;
20928;SDS011;21895;47.072;15.132;2023-10-13T02:54:40;3.00;;;1.43;;
20928;SDS011;21895;47.072;15.132;2023-10-13T02:57:13;3.67;;;1.63;;
20928;SDS011;21895;47.072;15.132;2023-10-13T02:59:41;3.93;;;1.73;;
20928;SDS011;21895;47.072;15.132;2023-10-13T03:02:21;4.97;;;1.67;;
20928;SDS011;21895;47.072;15.132;2023-10-13T03:04:56;3.87;;;1.80;;
20928;SDS011;21895;47.072;15.132;2023-10-13T03:07:34;5.60;;;1.40;;
20928;SDS011;21895;47.072;15.132;2023-10-13T03:10:08;2.40;;;1.27;;
20928;SDS011;21895;47.072;15.132;2023-10-13T03:12:38;2.90;;;1.50;;
20928;SDS011;21895;47.072;15.132;2023-10-13T03:15:05;2.57;;;1.23;;
20928;SDS011;21895;47.072;15.132;2023-10-13T03:18:06;7.20;;;1.90;;
20928;SDS011;21895;47.072;15.132;2023-10-13T03:20:32;5.20;;;1.50;;
20928;SDS011;21895;47.072;15.132;2023-10-13T03:23:00;6.50;;;1.57;;
20928;SDS011;21895;47.072;15.132;2023-10-13T03:25:35;2.87;;;1.37;;
20928;SDS011;21895;47.072;15.132;2023-10-13T03:28:08;4.17;;;1.50;;
20928;SDS011;21895;47.072;15.132;2023-10-13T03:30:39;2.50;;;1.20;;
20928;SDS011;21895;47.072;15.132;2023-10-13T03:33:09;2.40;;;1.30;;
20928;SDS011;21895;47.072;15.132;2023-10-13T03:35:40;3.87;;;1.73;;
20928;SDS011;21895;47.072;15.132;2023-10-13T03:38:07;2.37;;;1.30;;
20928;SDS011;21895;47.072;15.132;2023-10-13T03:40:48;4.70;;;1.93;;
20928;SDS011;21895;47.072;15.132;2023-10-13T03:43:33;4.07;;;1.23;;
20928;SDS011;21895;47.072;15.132;2023-10-13T03:46:10;3.17;;;1.37;;
20928;SDS011;21895;47.072;15.132;2023-10-13T03:48:37;8.90;;;1.97;;
20928;SDS011;21895;47.072;15.132;2023-10-13T03:51:17;14.37;;;1.30;;
20928;SDS011;21895;47.072;15.132;2023-10-13T03:53:45;3.20;;;1.50;;
20928;SDS011;21895;47.072;15.132;2023-10-13T03:56:18;8.37;;;2.47;;
20928;SDS011;21895;47.072;15.132;2023-10-13T03:58:58;2.37;;;1.10;;
20928;SDS011;21895;47.072;15.132;2023-10-13T04:01:27;4.40;;;1.60;;
20928;SDS011;21895;47.072;15.132;2023-10-13T04:04:12;5.77;;;1.43;;
20928;SDS011;21895;47.072;15.132;2023-10-13T04:06:41;4.60;;;1.53;;
20928;SDS011;21895;47.072;15.132;2023-10-13T04:09:20;2.27;;;1.23;;
20928;SDS011;21895;47.072;15.132;2023-10-13T04:12:00;5.13;;;1.33;;
20928;SDS011;21895;47.072;15.132;2023-10-13T04:14:38;2.30;;;1.10;;
20928;SDS011;21895;47.072;15.132;2023-10-13T04:17:28;9.23;;;1.63;;
20928;SDS011;21895;47.072;15.132;2023-10-13T04:20:00;6.67;;;1.67;;
20928;SDS011;21895;47.072;15.132;2023-10-13T04:22:33;2.00;;;1.20;;
20928;SDS011;21895;47.072;15.132;2023-10-13T04:25:22;10.20;;;1.63;;
20928;SDS011;21895;47.072;15.132;2023-10-13T04:28:11;3.27;;;1.17;;
20928;SDS011;21895;47.072;15.132;2023-10-13T04:31:00;2.67;;;1.40;;
20928;SDS011;21895;47.072;15.132;2023-10-13T04:33:37;4.57;;;1.57;;
20928;SDS011;21895;47.072;15.132;2023-10-13T04:36:16;5.93;;;1.40;;
20928;SDS011;21895;47.072;15.132;2023-10-13T04:38:50;1.77;;;1.20;;
20928;SDS011;21895;47.072;15.132;2023-10-13T04:41:32;2.83;;;1.20;;
20928;SDS011;21895;47.072;15.132;2023-10-13T04:44:11;2.53;;;1.30;;
20928;SDS011;21895;47.072;15.132;2023-10-13T04:46:58;8.30;;;1.70;;
20928;SDS011;21895;47.072;15.132;2023-10-13T04:49:27;4.33;;;2.03;;
20928;SDS011;21895;47.072;15.132;2023-10-13T04:52:15;4.07;;;1.23;;
20928;SDS011;21895;47.072;15.132;2023-10-13T04:55:01;7.13;;;1.97;;
20928;SDS011;21895;47.072;15.132;2023-10-13T04:57:46;5.90;;;1.30;;
20928;SDS011;21895;47.072;15.132;2023-10-13T05:00:15;3.10;;;1.40;;
20928;SDS011;21895;47.072;15.132;2023-10-13T05:02:43;5.93;;;1.70;;
20928;SDS011;21895;47.072;15.132;2023-10-13T05:05:26;4.83;;;1.60;;
20928;SDS011;21895;47.072;15.132;2023-10-13T05:08:12;5.07;;;2.50;;
20928;SDS011;21895;47.072;15.132;2023-10-13T05:10:57;7.97;;;1.47;;
20928;SDS011;21895;47.072;15.132;2023-10-13T05:13:48;3.53;;;1.53;;
20928;SDS011;21895;47.072;15.132;2023-10-13T05:16:33;9.97;;;1.63;;
20928;SDS011;21895;47.072;15.132;2023-10-13T05:19:18;5.07;;;1.80;;
20928;SDS011;21895;47.072;15.132;2023-10-13T05:22:02;5.37;;;1.80;;
20928;SDS011;21895;47.072;15.132;2023-10-13T05:24:48;5.33;;;2.37;;
20928;SDS011;21895;47.072;15.132;2023-10-13T05:27:33;5.47;;;1.40;;
20928;SDS011;21895;47.072;15.132;2023-10-13T05:30:17;1.83;;;1.30;;
20928;SDS011;21895;47.072;15.132;2023-10-13T05:33:03;4.20;;;1.20;;
20928;SDS011;21895;47.072;15.132;2023-10-13T05:35:48;6.77;;;1.67;;
20928;SDS011;21895;47.072;15.132;2023-10-13T05:38:33;1.63;;;1.20;;
20928;SDS011;21895;47.072;15.132;2023-10-13T05:41:17;14.53;;;2.30;;
20928;SDS011;21895;47.072;15.132;2023-10-13T05:44:02;3.20;;;1.37;;
20928;SDS011;21895;47.072;15.132;2023-10-13T05:46:47;4.67;;;1.33;;
20928;SDS011;21895;47.072;15.132;2023-10-13T05:49:32;2.53;;;1.17;;
20928;SDS011;21895;47.072;15.132;2023-10-13T05:52:30;2.80;;;1.60;;
20928;SDS011;21895;47.072;15.132;2023-10-13T05:56:49;3.40;;;1.37;;
20928;SDS011;21895;47.072;15.132;2023-10-13T05:59:35;7.10;;;1.83;;
20928;SDS011;21895;47.072;15.132;2023-10-13T06:02:22;6.50;;;2.17;;
20928;SDS011;21895;47.072;15.132;2023-10-13T06:07:42;3.33;;;1.50;;
20928;SDS011;21895;47.072;15.132;2023-10-13T06:10:27;3.93;;;1.80;;
20928;SDS011;21895;47.072;15.132;2023-10-13T06:13:12;5.10;;;1.60;;
20928;SDS011;21895;47.072;15.132;2023-10-13T06:15:57;5.97;;;1.60;;
20928;SDS011;21895;47.072;15.132;2023-10-13T06:18:41;6.60;;;1.40;;
20928;SDS011;21895;47.072;15.132;2023-10-13T06:21:26;9.83;;;2.60;;
20928;SDS011;21895;47.072;15.132;2023-10-13T06:24:11;7.43;;;1.83;;
20928;SDS011;21895;47.072;15.132;2023-10-13T06:26:56;4.33;;;1.70;;
20928;SDS011;21895;47.072;15.132;2023-10-13T06:29:41;3.63;;;1.70;;
20928;SDS011;21895;47.072;15.132;2023-10-13T06:32:12;14.47;;;2.57;;
20928;SDS011;21895;47.072;15.132;2023-10-13T06:34:40;6.77;;;2.33;;
20928;SDS011;21895;47.072;15.132;2023-10-13T06:37:16;12.67;;;2.57;;
20928;SDS011;21895;47.072;15.132;2023-10-13T06:39:49;6.20;;;1.97;;
20928;SDS011;21895;47.072;15.132;2023-10-13T06:42:16;2.67;;;1.30;;
20928;SDS011;21895;47.072;15.132;2023-10-13T06:44:47;3.23;;;1.73;;
20928;SDS011;21895;47.072;15.132;2023-10-13T06:47:13;6.53;;;1.90;;
20928;SDS011;21895;47.072;15.132;2023-10-13T06:49:40;4.47;;;1.47;;
20928;SDS011;21895;47.072;15.132;2023-10-13T06:52:09;5.77;;;1.73;;
20928;SDS011;21895;47.072;15.132;2023-10-13T06:54:36;3.27;;;1.73;;
20928;SDS011;21895;47.072;15.132;2023-10-13T06:57:05;4.73;;;1.70;;
20928;SDS011;21895;47.072;15.132;2023-10-13T06:59:40;9.60;;;1.60;;
20928;SDS011;21895;47.072;15.132;2023-10-13T07:02:06;3.20;;;1.57;;
20928;SDS011;21895;47.072;15.132;2023-10-13T07:04:52;5.10;;;1.93;;
20928;SDS011;21895;47.072;15.132;2023-10-13T07:07:40;2.93;;;1.70;;
20928;SDS011;21895;47.072;15.132;2023-10-13T07:10:10;5.33;;;2.13;;
20928;SDS011;21895;47.072;15.132;2023-10-13T07:12:38;6.53;;;1.90;;
20928;SDS011;21895;47.072;15.132;2023-10-13T07:15:11;3.00;;;1.57;;
20928;SDS011;21895;47.072;15.132;2023-10-13T07:17:44;8.30;;;2.23;;
20928;SDS011;21895;47.072;15.132;2023-10-13T07:20:20;5.30;;;2.40;;
20928;SDS011;21895;47.072;15.132;2023-10-13T07:22:50;2.67;;;1.43;;
20928;SDS011;21895;47.072;15.132;2023-10-13T07:25:29;8.57;;;2.30;;
20928;SDS011;21895;47.072;15.132;2023-10-13T07:28:04;6.45;;;1.65;;
20928;SDS011;21895;47.072;15.132;2023-10-13T07:30:34;4.07;;;2.10;;
20928;SDS011;21895;47.072;15.132;2023-10-13T07:33:19;10.20;;;2.53;;
20928;SDS011;21895;47.072;15.132;2023-10-13T07:35:46;3.17;;;1.70;;
20928;SDS011;21895;47.072;15.132;2023-10-13T07:38:42;5.73;;;1.97;;
20928;SDS011;21895;47.072;15.132;2023-10-13T07:41:21;7.05;;;2.62;;
20928;SDS011;21895;47.072;15.132;2023-10-13T07:43:55;3.15;;;1.85;;
20928;SDS011;21895;47.072;15.132;2023-10-13T07:46:25;3.60;;;1.80;;
20928;SDS011;21895;47.072;15.132;2023-10-13T07:48:57;8.57;;;2.15;;
20928;SDS011;21895;47.072;15.132;2023-10-13T07:51:35;2.90;;;1.98;;
20928;SDS011;21895;47.072;15.132;2023-10-13T07:54:10;4.15;;;1.95;;
20928;SDS011;21895;47.072;15.132;2023-10-13T07:56:47;9.20;;;2.67;;
20928;SDS011;21895;47.072;15.132;2023-10-13T07:59:14;6.05;;;2.10;;
20928;SDS011;21895;47.072;15.132;2023-10-13T08:01:40;5.95;;;2.50;;
20928;SDS011;21895;47.072;15.132;2023-10-13T08:04:09;9.68;;;2.40;;
20928;SDS011;21895;47.072;15.132;2023-10-13T08:06:40;9.38;;;2.40;;
20928;SDS011;21895;47.072;15.132;2023-10-13T08:09:07;7.20;;;2.00;;
20928;SDS011;21895;47.072;15.132;2023-10-13T08:11:55;6.05;;;2.50;;
20928;SDS011;21895;47.072;15.132;2023-10-13T08:14:22;4.68;;;2.45;;
20928;SDS011;21895;47.072;15.132;2023-10-13T08:17:07;13.20;;;2.80;;
20928;SDS011;21895;47.072;15.132;2023-10-13T08:19:38;7.93;;;2.83;;
20928;SDS011;21895;47.072;15.132;2023-10-13T08:22:05;8.90;;;3.90;;
20928;SDS011;21895;47.072;15.132;2023-10-13T08:24:44;9.45;;;3.00;;
20928;SDS011;21895;47.072;15.132;2023-10-13T08:27:17;7.00;;;2.87;;
20928;SDS011;21895;47.072;15.132;2023-10-13T08:30:13;19.80;;;3.78;;
20928;SDS011;21895;47.072;15.132;2023-10-13T08:32:52;9.63;;;3.30;;
20928;SDS011;21895;47.072;15.132;2023-10-13T08:35:23;16.58;;;3.35;;
20928;SDS011;21895;47.072;15.132;2023-10-13T08:37:55;28.73;;;2.90;;
20928;SDS011;21895;47.072;15.132;2023-10-13T08:40:36;5.18;;;2.40;;
20928;SDS011;21895;47.072;15.132;2023-10-13T08:43:25;7.50;;;2.72;;
20928;SDS011;21895;47.072;15.132;2023-10-13T08:46:08;8.27;;;3.12;;
20928;SDS011;21895;47.072;15.132;2023-10-13T08:48:35;9.48;;;2.92;;
20928;SDS011;21895;47.072;15.132;2023-10-13T08:51:02;5.47;;;2.65;;
20928;SDS011;21895;47.072;15.132;2023-10-13T08:53:37;10.75;;;2.72;;
20928;SDS011;21895;47.072;15.132;2023-10-13T08:56:17;6.12;;;2.25;;
20928;SDS011;21895;47.072;15.132;2023-10-13T08:58:57;9.00;;;2.67;;
20928;SDS011;21895;47.072;15.132;2023-10-13T09:01:27;7.80;;;2.62;;
20928;SDS011;21895;47.072;15.132;2023-10-13T09:04:13;11.35;;;3.00;;
20928;SDS011;21895;47.072;15.132;2023-10-13T09:06:48;9.50;;;2.45;;
20928;SDS011;21895;47.072;15.132;2023-10-13T09:09:33;7.25;;;2.53;;
20928;SDS011;21895;47.072;15.132;2023-10-13T09:12:58;6.75;;;2.78;;
20928;SDS011;21895;47.072;15.132;2023-10-13T09:15:29;11.40;;;2.20;;
20928;SDS011;21895;47.072;15.132;2023-10-13T09:18:24;9.52;;;2.53;;
20928;SDS011;21895;47.072;15.132;2023-10-13T09:21:10;9.55;;;2.35;;
20928;SDS011;21895;47.072;15.132;2023-10-13T09:24:14;16.25;;;2.30;;
20928;SDS011;21895;47.072;15.132;2023-10-13T09:27:00;9.95;;;2.85;;
20928;SDS011;21895;47.072;15.132;2023-10-13T09:29:28;5.43;;;2.83;;
20928;SDS011;21895;47.072;15.132;2023-10-13T09:32:02;4.85;;;2.50;;
20928;SDS011;21895;47.072;15.132;2023-10-13T09:34:30;5.18;;;2.35;;
20928;SDS011;21895;47.072;15.132;2023-10-13T09:37:06;4.45;;;2.00;;
20928;SDS011;21895;47.072;15.132;2023-10-13T09:39:35;9.57;;;2.45;;
20928;SDS011;21895;47.072;15.132;2023-10-13T09:42:10;5.93;;;2.62;;
20928;SDS011;21895;47.072;15.132;2023-10-13T09:44:42;6.03;;;2.67;;
20928;SDS011;21895;47.072;15.132;2023-10-13T09:47:15;8.02;;;3.05;;
20928;SDS011;21895;47.072;15.132;2023-10-13T09:49:58;11.73;;;2.85;;
20928;SDS011;21895;47.072;15.132;2023-10-13T09:52:31;4.57;;;2.25;;
20928;SDS011;21895;47.072;15.132;2023-10-13T09:55:00;5.72;;;2.53;;
20928;SDS011;21895;47.072;15.132;2023-10-13T09:57:39;7.60;;;2.37;;
20928;SDS011;21895;47.072;15.132;2023-10-13T10:00:18;6.80;;;3.00;;
20928;SDS011;21895;47.072;15.132;2023-10-13T10:03:46;6.03;;;2.20;;
20928;SDS011;21895;47.072;15.132;2023-10-13T10:06:23;8.73;;;2.55;;
20928;SDS011;21895;47.072;15.132;2023-10-13T10:09:05;6.57;;;3.08;;
20928;SDS011;21895;47.072;15.132;2023-10-13T10:13:02;8.73;;;2.87;;
20928;SDS011;21895;47.072;15.132;2023-10-13T10:15:48;9.50;;;3.53;;
20928;SDS011;21895;47.072;15.132;2023-10-13T10:18:20;11.18;;;3.15;;
20928;SDS011;21895;47.072;15.132;2023-10-13T10:20:51;6.00;;;2.65;;
20928;SDS011;21895;47.072;15.132;2023-10-13T10:23:31;5.53;;;2.70;;
20928;SDS011;21895;47.072;15.132;2023-10-13T10:26:11;9.27;;;2.62;;
20928;SDS011;21895;47.072;15.132;2023-10-13T10:28:45;4.28;;;2.67;;
20928;SDS011;21895;47.072;15.132;2023-10-13T10:31:13;4.82;;;2.62;;
20928;SDS011;21895;47.072;15.132;2023-10-13T10:33:43;11.55;;;2.40;;
20928;SDS011;21895;47.072;15.132;2023-10-13T10:36:10;7.25;;;3.00;;
20928;SDS011;21895;47.072;15.132;2023-10-13T10:38:55;7.57;;;2.60;;
20928;SDS011;21895;47.072;15.132;2023-10-13T10:41:26;4.62;;;2.00;;
20928;SDS011;21895;47.072;15.132;2023-10-13T10:44:11;9.18;;;2.60;;
20928;SDS011;21895;47.072;15.132;2023-10-13T10:46:43;9.43;;;2.50;;
20928;SDS011;21895;47.072;15.132;2023-10-13T10:49:26;6.70;;;2.37;;
20928;SDS011;21895;47.072;15.132;2023-10-13T10:51:56;8.05;;;2.20;;
20928;SDS011;21895;47.072;15.132;2023-10-13T10:54:31;8.02;;;3.03;;
20928;SDS011;21895;47.072;15.132;2023-10-13T10:56:58;10.48;;;2.55;;
20928;SDS011;21895;47.072;15.132;2023-10-13T11:00:05;6.03;;;2.47;;
20928;SDS011;21895;47.072;15.132;2023-10-13T11:02:55;3.75;;;2.00;;
20928;SDS011;21895;47.072;15.132;2023-10-13T11:05:23;7.37;;;2.55;;
20928;SDS011;21895;47.072;15.132;2023-10-13T11:07:58;9.77;;;2.78;;
20928;SDS011;21895;47.072;15.132;2023-10-13T11:10:25;6.95;;;2.58;;
20928;SDS011;21895;47.072;15.132;2023-10-13T11:12:58;5.10;;;2.30;;
20928;SDS011;21895;47.072;15.132;2023-10-13T11:15:42;4.37;;;2.25;;
20928;SDS011;21895;47.072;15.132;2023-10-13T11:18:12;15.43;;;2.80;;
20928;SDS011;21895;47.072;15.132;2023-10-13T11:20:42;11.20;;;2.15;;
20928;SDS011;21895;47.072;15.132;2023-10-13T11:23:10;15.82;;;2.70;;
20928;SDS011;21895;47.072;15.132;2023-10-13T11:25:41;13.40;;;2.75;;
20928;SDS011;21895;47.072;15.132;2023-10-13T11:28:16;7.90;;;2.35;;
20928;SDS011;21895;47.072;15.132;2023-10-13T11:30:43;6.65;;;2.78;;
20928;SDS011;21895;47.072;15.132;2023-10-13T11:33:15;8.68;;;2.58;;
20928;SDS011;21895;47.072;15.132;2023-10-13T11:35:45;7.07;;;2.12;;
20928;SDS011;21895;47.072;15.132;2023-10-13T11:38:15;4.90;;;1.70;;
20928;SDS011;21895;47.072;15.132;2023-10-13T11:40:57;7.03;;;2.20;;
20928;SDS011;21895;47.072;15.132;2023-10-13T11:43:33;6.87;;;2.42;;
20928;SDS011;21895;47.072;15.132;2023-10-13T11:46:17;9.63;;;2.60;;
20928;SDS011;21895;47.072;15.132;2023-10-13T11:49:01;7.43;;;2.50;;
20928;SDS011;21895;47.072;15.132;2023-10-13T11:52:22;4.55;;;2.10;;
20928;SDS011;21895;47.072;15.132;2023-10-13T11:54:51;3.95;;;2.03;;
20928;SDS011;21895;47.072;15.132;2023-10-13T11:57:18;10.68;;;2.90;;
20928;SDS011;21895;47.072;15.132;2023-10-13T11:59:45;8.32;;;2.17;;
20928;SDS011;21895;47.072;15.132;2023-10-13T12:02:19;4.65;;;2.17;;
20928;SDS011;21895;47.072;15.132;2023-10-13T12:04:52;11.55;;;2.60;;
20928;SDS011;21895;47.072;15.132;2023-10-13T12:07:21;9.68;;;2.78;;
20928;SDS011;21895;47.072;15.132;2023-10-13T12:10:11;10.32;;;2.42;;
20928;SDS011;21895;47.072;15.132;2023-10-13T12:12:42;6.93;;;2.20;;
20928;SDS011;21895;47.072;15.132;2023-10-13T12:15:10;10.95;;;2.65;;
20928;SDS011;21895;47.072;15.132;2023-10-13T12:17:51;4.53;;;2.22;;
20928;SDS011;21895;47.072;15.132;2023-10-13T12:20:17;5.85;;;2.08;;
20928;SDS011;21895;47.072;15.132;2023-10-13T12:22:58;5.05;;;2.50;;
20928;SDS011;21895;47.072;15.132;2023-10-13T12:25:36;5.93;;;2.67;;
20928;SDS011;21895;47.072;15.132;2023-10-13T12:28:21;5.18;;;2.00;;
20928;SDS011;21895;47.072;15.132;2023-10-13T12:30:49;9.73;;;2.58;;
20928;SDS011;21895;47.072;15.132;2023-10-13T12:33:19;6.97;;;2.42;;
20928;SDS011;21895;47.072;15.132;2023-10-13T12:36:06;6.40;;;2.50;;
20928;SDS011;21895;47.072;15.132;2023-10-13T12:38:40;8.70;;;2.15;;
20928;SDS011;21895;47.072;15.132;2023-10-13T12:41:13;10.20;;;2.70;;
20928;SDS011;21895;47.072;15.132;2023-10-13T12:44:02;8.00;;;2.72;;
20928;SDS011;21895;47.072;15.132;2023-10-13T12:46:49;6.65;;;2.55;;
20928;SDS011;21895;47.072;15.132;2023-10-13T12:49:36;6.03;;;2.30;;
20928;SDS011;21895;47.072;15.132;2023-10-13T12:52:09;8.63;;;2.83;;
20928;SDS011;21895;47.072;15.132;2023-10-13T12:54:51;4.50;;;2.37;;
20928;SDS011;21895;47.072;15.132;2023-10-13T12:57:24;9.02;;;2.62;;
20928;SDS011;21895;47.072;15.132;2023-10-13T12:59:53;13.45;;;2.65;;
20928;SDS011;21895;47.072;15.132;2023-10-13T13:02:21;4.75;;;2.50;;
20928;SDS011;21895;47.072;15.132;2023-10-13T13:04:53;10.48;;;2.30;;
20928;SDS011;21895;47.072;15.132;2023-10-13T13:07:37;7.32;;;2.80;;
20928;SDS011;21895;47.072;15.132;2023-10-13T13:10:13;12.32;;;2.22;;
20928;SDS011;21895;47.072;15.132;2023-10-13T13:12:41;8.93;;;2.40;;
20928;SDS011;21895;47.072;15.132;2023-10-13T13:15:08;8.93;;;2.47;;
20928;SDS011;21895;47.072;15.132;2023-10-13T13:17:37;6.65;;;2.53;;
20928;SDS011;21895;47.072;15.132;2023-10-13T13:20:05;12.50;;;3.00;;
20928;SDS011;21895;47.072;15.132;2023-10-13T13:22:39;9.57;;;2.65;;
20928;SDS011;21895;47.072;15.132;2023-10-13T13:25:06;5.07;;;2.17;;
20928;SDS011;21895;47.072;15.132;2023-10-13T13:27:34;8.88;;;2.87;;
20928;SDS011;21895;47.072;15.132;2023-10-13T13:30:03;4.90;;;2.05;;
20928;SDS011;21895;47.072;15.132;2023-10-13T13:32:38;9.57;;;2.45;;
20928;SDS011;21895;47.072;15.132;2023-10-13T13:35:06;8.65;;;2.72;;
20928;SDS011;21895;47.072;15.132;2023-10-13T13:37:34;9.35;;;2.65;;
20928;SDS011;21895;47.072;15.132;2023-10-13T13:40:06;6.22;;;2.17;;
20928;SDS011;21895;47.072;15.132;2023-10-13T13:42:42;6.82;;;2.40;;
20928;SDS011;21895;47.072;15.132;2023-10-13T13:45:18;7.72;;;2.47;;
20928;SDS011;21895;47.072;15.132;2023-10-13T13:47:52;6.45;;;2.58;;
20928;SDS011;21895;47.072;15.132;2023-10-13T13:50:23;7.78;;;3.00;;
20928;SDS011;21895;47.072;15.132;2023-10-13T13:52:56;6.60;;;2.85;;
20928;SDS011;21895;47.072;15.132;2023-10-13T13:55:23;6.57;;;2.50;;
20928;SDS011;21895;47.072;15.132;2023-10-13T13:57:57;11.15;;;2.55;;
20928;SDS011;21895;47.072;15.132;2023-10-13T14:00:24;4.82;;;2.53;;
20928;SDS011;21895;47.072;15.132;2023-10-13T14:03:06;8.18;;;3.25;;
20928;SDS011;21895;47.072;15.132;2023-10-13T14:05:59;8.18;;;2.40;;
20928;SDS011;21895;47.072;15.132;2023-10-13T14:08:26;11.60;;;3.05;;
20928;SDS011;21895;47.072;15.132;2023-10-13T14:10:53;7.40;;;3.22;;
20928;SDS011;21895;47.072;15.132;2023-10-13T14:13:38;12.93;;;3.15;;
20928;SDS011;21895;47.072;15.132;2023-10-13T14:16:15;5.30;;;2.70;;
20928;SDS011;21895;47.072;15.132;2023-10-13T14:18:44;13.65;;;3.50;;
20928;SDS011;21895;47.072;15.132;2023-10-13T14:21:14;8.57;;;3.67;;
20928;SDS011;21895;47.072;15.132;2023-10-13T14:23:51;6.32;;;2.65;;
20928;SDS011;21895;47.072;15.132;2023-10-13T14:26:19;10.18;;;3.40;;
20928;SDS011;21895;47.072;15.132;2023-10-13T14:28:47;9.70;;;3.08;;
20928;SDS011;21895;47.072;15.132;2023-10-13T14:31:26;10.55;;;3.60;;
20928;SDS011;21895;47.072;15.132;2023-10-13T14:33:53;7.12;;;2.65;;
20928;SDS011;21895;47.072;15.132;2023-10-13T14:36:21;7.87;;;3.00;;
20928;SDS011;21895;47.072;15.132;2023-10-13T14:38:47;6.93;;;3.30;;
20928;SDS011;21895;47.072;15.132;2023-10-13T14:41:17;10.65;;;3.60;;
20928;SDS011;21895;47.072;15.132;2023-10-13T14:43:44;12.30;;;3.03;;
20928;SDS011;21895;47.072;15.132;2023-10-13T14:46:17;8.13;;;3.10;;
20928;SDS011;21895;47.072;15.132;2023-10-13T14:48:51;7.55;;;3.20;;
20928;SDS011;21895;47.072;15.132;2023-10-13T14:51:18;10.25;;;3.42;;
20928;SDS011;21895;47.072;15.132;2023-10-13T14:53:48;5.78;;;3.42;;
20928;SDS011;21895;47.072;15.132;2023-10-13T14:56:19;6.72;;;3.37;;
20928;SDS011;21895;47.072;15.132;2023-10-13T14:58:45;7.32;;;3.15;;
20928;SDS011;21895;47.072;15.132;2023-10-13T15:01:13;10.32;;;3.60;;
20928;SDS011;21895;47.072;15.132;2023-10-13T15:03:44;7.68;;;2.95;;
20928;SDS011;21895;47.072;15.132;2023-10-13T15:06:20;11.63;;;3.22;;
20928;SDS011;21895;47.072;15.132;2023-10-13T15:08:55;14.02;;;3.53;;
20928;SDS011;21895;47.072;15.132;2023-10-13T15:11:23;7.15;;;3.20;;
20928;SDS011;21895;47.072;15.132;2023-10-13T15:14:09;9.15;;;3.17;;
20928;SDS011;21895;47.072;15.132;2023-10-13T15:16:38;7.47;;;3.30;;
20928;SDS011;21895;47.072;15.132;2023-10-13T15:19:06;8.00;;;2.97;;
20928;SDS011;21895;47.072;15.132;2023-10-13T15:21:33;9.00;;;2.87;;
20928;SDS011;21895;47.072;15.132;2023-10-13T15:24:03;18.12;;;3.42;;
20928;SDS011;21895;47.072;15.132;2023-10-13T15:26:51;13.70;;;3.40;;